CST,Max TemperatureF,Mean TemperatureF,Min TemperatureF,Max Dew PointF,MeanDew PointF,Min DewpointF,Max Humidity, Mean Humidity, Min Humidity, Max Sea Level PressureIn, Mean Sea Level PressureIn, Min Sea Level PressureIn, Max VisibilityMiles, Mean VisibilityMiles, Min VisibilityMiles, Max Wind SpeedMPH, Mean Wind SpeedMPH, Max Gust SpeedMPH,PrecipitationIn, CloudCover, Events, WindDirDegrees
2013-2-1,6,-4,-14,3,-10,-18,92,74,55,30.29,30.18,30.02,10,7,1,16,9,22,0.01,3,Snow,244
2013-2-2,8,4,0,7,1,-6,92,81,67,30.15,30.06,29.95,10,7,1,12,3,,0.00,5,Snow,341
2013-2-3,10,6,1,9,4,-2,92,82,67,30.07,30.00,29.94,10,6,1,16,8,23,0.01,6,Snow,297
2013-2-4,15,8,0,10,2,-2,92,75,53,30.05,29.95,29.76,10,8,1,10,5,,0.00,4,Snow,355
2013-2-5,28,16,3,25,16,1,100,84,69,30.07,29.84,29.65,10,8,0,16,9,24,0.04,5,Snow,271
2013-2-6,24,12,0,19,11,-4,100,90,80,30.10,30.00,29.91,10,6,2,13,3,,0.00,1,Snow,87
2013-2-7,24,20,17,23,21,16,100,87,80,30.23,30.08,29.96,10,6,1,14,7,18,0.00,7,,8
2013-2-8,24,20,17,19,16,10,93,80,63,30.36,30.29,30.21,10,10,10,12,6,17,0.00,7,,112
2013-2-9,30,27,24,27,24,19,93,88,80,30.21,30.05,29.92,10,7,3,15,11,22,0.00,8,,160
2013-2-10,32,29,26,32,29,25,100,97,86,29.91,29.49,29.24,7,3,0,20,10,23,0.32,8,Snow,82
2013-2-11,28,22,14,28,19,10,100,84,74,30.03,29.75,29.31,10,8,1,26,19,32,0.00,8,Snow,290
2013-2-12,33,22,12,25,17,9,100,79,60,30.04,29.91,29.80,10,10,10,10,5,,0.00,2,Snow,235
2013-2-13,39,27,15,32,23,12,100,85,60,29.79,29.67,29.54,10,9,1,9,4,,0.04,5,Rain-Snow,235
2013-2-14,32,21,10,30,19,3,100,80,46,30.16,29.87,29.55,10,8,1,18,11,25,0.00,3,Snow,310
2013-2-15,15,8,0,3,1,-2,92,75,53,30.28,30.24,30.16,10,10,10,18,10,,0.00,1,,282
2013-2-16,14,5,-4,5,0,-6,92,83,62,30.24,30.17,30.09,10,8,2,9,4,,0.00,2,Snow,265
2013-2-17,30,16,1,21,12,-2,92,79,64,30.10,29.89,29.62,10,10,10,16,6,22,0.00,1,,136
2013-2-18,33,19,5,30,17,0,93,82,73,29.78,29.61,29.51,10,8,1,25,11,32,0.00,6,Snow,255
2013-2-19,3,-1,-5,0,-6,-11,85,74,66,30.34,30.07,29.79,10,7,1,24,18,34,0.00,2,Snow,289
2013-2-20,12,0,-11,3,-5,-17,85,73,62,30.43,30.40,30.35,10,10,10,9,5,,0.00,0,,326
2013-2-21,19,8,-2,10,4,-6,92,76,63,30.41,30.28,30.04,10,10,10,14,4,17,0.00,1,,57
2013-2-22,26,22,17,19,18,12,100,88,69,30.04,29.89,29.84,10,4,0,14,9,18,0.03,8,Snow,356
2013-2-23,24,14,3,19,14,1,100,89,74,29.95,29.87,29.84,10,8,2,9,5,,0.00,6,Snow,251
2013-2-24,30,12,-5,19,9,-9,93,83,64,30.08,30.04,29.95,10,9,5,6,1,,0.00,1,,133
2013-2-25,32,20,8,25,20,7,100,87,69,30.10,30.06,30.02,10,5,0,5,0,,0.00,5,Fog,151
2013-2-26,33,20,6,27,21,3,100,84,70,30.03,29.92,29.85,10,6,0,14,5,20,0.00,4,Fog,15
2013-2-27,35,30,26,25,24,21,86,77,60,30.00,29.89,29.84,10,10,10,18,10,23,0.00,4,,2
2013-2-28,28,26,23,21,19,16,80,73,69,30.20,30.12,30.01,10,10,10,16,10,22,0.00,8,,8